createdAt,value
2022-08-08T00:00:54.007Z,13.48
2022-08-08T00:02:32.858Z,11.63
2022-08-08T00:05:17.376Z,9.82
2022-08-08T00:07:51.575Z,8.85
2022-08-08T00:10:28.386Z,8.82
2022-08-08T00:13:04.430Z,9.52
2022-08-08T00:15:56.633Z,8.70
2022-08-08T00:18:30.741Z,8.45
2022-08-08T00:21:05.251Z,8.02
2022-08-08T00:23:42.520Z,8.25
2022-08-08T00:26:26.384Z,7.75
2022-08-08T00:29:07.816Z,7.25
2022-08-08T00:32:29.172Z,8.30
2022-08-08T00:35:04.078Z,7.35
2022-08-08T00:37:47.821Z,7.90
2022-08-08T00:41:12.842Z,7.55
2022-08-08T00:43:55.891Z,9.27
2022-08-08T00:47:04.367Z,9.02
2022-08-08T00:50:04.780Z,10.88
2022-08-08T00:52:48.503Z,15.15
2022-08-08T00:55:56.043Z,12.18
2022-08-08T00:59:07.233Z,11.75
2022-08-08T01:01:41.399Z,13.43
2022-08-08T01:05:00.143Z,14.73
2022-08-08T01:11:08.267Z,13.95
2022-08-08T01:14:16.479Z,10.65
2022-08-08T01:17:01.505Z,8.85
2022-08-08T01:20:03.002Z,8.80
2022-08-08T01:22:59.253Z,7.28
2022-08-08T01:25:54.494Z,7.78
2022-08-08T01:28:36.741Z,7.40
2022-08-08T01:32:13.899Z,7.57
2022-08-08T01:34:30.373Z,7.82
2022-08-08T01:37:17.475Z,7.22
2022-08-08T01:40:02.900Z,7.60
2022-08-08T01:42:46.846Z,7.47
2022-08-08T01:45:24.061Z,7.93
2022-08-08T01:48:14.225Z,7.68
2022-08-08T01:50:53.673Z,7.95
2022-08-08T01:55:25.628Z,7.28
2022-08-08T01:56:31.642Z,7.80
2022-08-08T01:59:09.196Z,7.90
2022-08-08T02:02:00.034Z,8.00
2022-08-08T02:04:35.783Z,8.68
2022-08-08T02:07:09.942Z,8.02
2022-08-08T02:10:02.700Z,8.32
2022-08-08T02:12:49.167Z,8.85
2022-08-08T02:15:25.399Z,8.68
2022-08-08T02:17:57.564Z,7.82
2022-08-08T02:21:01.105Z,7.93
2022-08-08T02:23:22.698Z,7.70
2022-08-08T02:26:00.413Z,8.07
2022-08-08T02:28:38.797Z,8.57
2022-08-08T02:31:43.220Z,8.10
2022-08-08T02:34:08.601Z,8.18
2022-08-08T02:36:54.587Z,8.48
2022-08-08T02:39:40.569Z,8.00
2022-08-08T02:42:38.177Z,8.05
2022-08-08T02:45:28.897Z,8.23
2022-08-08T02:48:17.541Z,8.10
2022-08-08T02:51:11.846Z,8.40
2022-08-08T02:54:00.316Z,7.88
2022-08-08T02:56:47.215Z,8.20
2022-08-08T03:00:01.737Z,7.93
2022-08-08T03:03:09.007Z,8.52
2022-08-08T03:05:59.103Z,9.35
2022-08-08T03:08:51.699Z,8.88
2022-08-08T03:12:01.464Z,9.07
2022-08-08T03:15:58.853Z,8.52
2022-08-08T03:17:39.910Z,9.07
2022-08-08T03:20:11.427Z,8.95
2022-08-08T03:22:47.106Z,8.82
2022-08-08T03:25:18.783Z,8.93
2022-08-08T03:27:56.600Z,9.07
2022-08-08T03:30:26.201Z,10.10
2022-08-08T03:33:55.511Z,9.27
2022-08-08T03:36:03.542Z,9.00
2022-08-08T03:38:56.393Z,9.90
2022-08-08T03:42:13.223Z,8.00
2022-08-08T03:44:12.168Z,8.70
2022-08-08T03:46:47.311Z,7.57
2022-08-08T03:49:57.327Z,7.03
2022-08-08T03:52:13.078Z,6.30
2022-08-08T03:55:02.268Z,6.93
2022-08-08T03:58:31.084Z,7.53
2022-08-08T04:00:26.200Z,6.32
2022-08-08T04:03:06.308Z,6.63
2022-08-08T04:05:39.936Z,9.85
2022-08-08T04:08:33.136Z,10.77
2022-08-08T04:11:11.152Z,9.38
2022-08-08T04:14:04.161Z,10.27
2022-08-08T04:16:38.553Z,9.98
2022-08-08T04:19:25.292Z,8.00
2022-08-08T04:21:59.316Z,6.63
2022-08-08T04:24:32.460Z,6.97
2022-08-08T04:27:10.389Z,7.50
2022-08-08T04:29:39.671Z,6.70
2022-08-08T04:32:30.738Z,8.05
2022-08-08T04:35:01.890Z,7.65
2022-08-08T04:37:34.910Z,7.78
2022-08-08T04:40:12.772Z,6.80
2022-08-08T04:42:56.721Z,7.60
2022-08-08T04:45:28.019Z,7.30
2022-08-08T04:48:00.189Z,7.45
2022-08-08T04:50:37.618Z,7.63
2022-08-08T04:53:52.249Z,7.47
2022-08-08T04:55:56.998Z,7.32
2022-08-08T04:58:30.132Z,6.93
2022-08-08T05:00:58.285Z,7.40
2022-08-08T05:04:09.032Z,7.70
2022-08-08T05:06:25.743Z,6.35
2022-08-08T05:09:02.740Z,7.10
2022-08-08T05:11:39.285Z,7.28
2022-08-08T05:14:12.317Z,7.18
2022-08-08T05:16:52.889Z,6.88
2022-08-08T05:20:10.530Z,7.15
2022-08-08T05:22:17.547Z,7.03
2022-08-08T05:24:49.304Z,6.65
2022-08-08T05:27:20.210Z,7.13
2022-08-08T05:29:52.103Z,7.22
2022-08-08T05:32:24.724Z,7.25
2022-08-08T05:34:59.343Z,7.78
2022-08-08T05:37:51.909Z,7.90
2022-08-08T05:40:28.014Z,8.18
2022-08-08T05:43:03.035Z,8.50
2022-08-08T05:45:55.130Z,8.40
2022-08-08T05:48:31.561Z,7.85
2022-08-08T05:51:13.375Z,7.82
2022-08-08T05:54:24.515Z,14.20
2022-08-08T05:56:42.236Z,12.77
2022-08-08T05:59:53.673Z,6.55
2022-08-08T06:02:34.712Z,5.03
2022-08-08T06:05:24.324Z,5.20
2022-08-08T06:07:53.270Z,4.93
2022-08-08T06:10:31.712Z,5.72
2022-08-08T06:13:01.600Z,4.93
2022-08-08T06:15:31.666Z,5.00
2022-08-08T06:18:25.415Z,4.40
2022-08-08T06:20:55.465Z,4.10
2022-08-08T06:23:48.477Z,4.85
2022-08-08T06:26:38.904Z,5.07
2022-08-08T06:29:26.833Z,5.32
2022-08-08T06:32:11.391Z,6.00
2022-08-08T06:34:56.417Z,5.82
2022-08-08T06:37:40.323Z,5.95
2022-08-08T06:40:16.446Z,5.00
2022-08-08T06:42:48.362Z,5.18
2022-08-08T06:45:18.064Z,4.68
2022-08-08T06:47:52.119Z,4.13
2022-08-08T06:50:32.294Z,4.55
2022-08-08T06:53:14.309Z,7.75
2022-08-08T06:56:02.168Z,7.75
2022-08-08T06:58:32.999Z,9.02
2022-08-08T07:01:24.400Z,9.65
2022-08-08T07:04:40.420Z,12.27
2022-08-08T07:06:44.879Z,12.13
2022-08-08T07:09:17.933Z,4.75
2022-08-08T07:11:51.861Z,5.07
2022-08-08T07:14:25.024Z,4.97
2022-08-08T07:17:01.472Z,5.20
2022-08-08T07:19:36.232Z,4.80
2022-08-08T07:22:11.998Z,5.30
2022-08-08T07:24:52.864Z,4.10
2022-08-08T07:27:35.391Z,3.78
2022-08-08T07:30:16.843Z,4.13
2022-08-08T07:32:49.736Z,4.82
2022-08-08T07:35:18.632Z,4.50
2022-08-08T07:38:04.448Z,5.45
2022-08-08T07:40:50.889Z,7.43
2022-08-08T07:43:35.377Z,20.63
2022-08-08T07:46:24.043Z,14.48
2022-08-08T07:48:56.991Z,9.10
2022-08-08T07:51:53.169Z,6.97
2022-08-08T07:54:26.523Z,6.25
2022-08-08T07:57:03.360Z,6.10
2022-08-08T07:59:37.841Z,23.25
2022-08-08T08:02:36.436Z,6.85
2022-08-08T08:04:56.988Z,5.80
2022-08-08T08:07:32.109Z,6.50
2022-08-08T08:10:12.543Z,5.93
2022-08-08T08:12:44.169Z,5.85
2022-08-08T08:15:18.112Z,5.90
2022-08-08T08:17:55.919Z,5.70
2022-08-08T08:20:30.344Z,5.40
2022-08-08T08:23:00.125Z,7.20
2022-08-08T08:25:42.090Z,6.18
2022-08-08T08:28:21.401Z,6.95
2022-08-08T08:30:53.103Z,24.52
2022-08-08T08:33:21.092Z,6.00
2022-08-08T08:36:19.307Z,6.43
2022-08-08T08:38:49.102Z,9.63
2022-08-08T08:41:22.519Z,15.07
2022-08-08T08:43:52.908Z,7.47
2022-08-08T08:46:41.357Z,4.05
2022-08-08T08:49:16.550Z,3.95
2022-08-08T08:51:51.616Z,5.28
2022-08-08T08:54:25.240Z,8.65
2022-08-08T08:56:55.792Z,4.60
2022-08-08T08:59:30.659Z,3.72
2022-08-08T09:02:17.777Z,4.35
2022-08-08T09:04:50.218Z,3.88
2022-08-08T09:07:24.155Z,3.67
2022-08-08T09:10:13.596Z,3.97
2022-08-08T09:12:47.415Z,4.13
2022-08-08T09:15:24.222Z,3.40
2022-08-08T09:18:05.742Z,3.30
2022-08-08T09:21:57.974Z,3.95
2022-08-08T09:23:25.363Z,3.95
2022-08-08T09:26:02.090Z,3.45
2022-08-08T09:28:38.294Z,3.80
2022-08-08T09:31:13.945Z,3.22
2022-08-08T09:34:06.139Z,4.13
2022-08-08T09:36:35.854Z,4.57
2022-08-08T09:39:10.227Z,4.22
2022-08-08T09:42:14.008Z,5.18
2022-08-08T09:44:50.576Z,6.20
2022-08-08T09:48:02.054Z,8.95
2022-08-08T09:50:14.057Z,8.00
2022-08-08T09:53:14.183Z,6.28
2022-08-08T09:56:04.112Z,9.00
2022-08-08T09:58:25.769Z,7.97
2022-08-08T10:00:58.987Z,7.80
2022-08-08T10:03:31.444Z,6.10
2022-08-08T10:06:00.931Z,5.47
2022-08-08T10:08:32.514Z,5.18
2022-08-08T10:11:00.726Z,4.00
2022-08-08T10:13:35.443Z,4.22
2022-08-08T10:16:05.779Z,4.15
2022-08-08T10:18:34.349Z,2.80
2022-08-08T10:21:23.215Z,3.25
2022-08-08T10:23:58.505Z,2.65
2022-08-08T10:26:56.998Z,2.65
2022-08-08T10:29:24.925Z,2.80
2022-08-08T10:32:15.250Z,2.13
2022-08-08T10:34:51.046Z,1.98
2022-08-08T10:37:26.077Z,2.20
2022-08-08T10:39:55.821Z,2.10
2022-08-08T10:42:27.144Z,2.33
2022-08-08T10:45:00.635Z,2.03
2022-08-08T10:47:30.515Z,2.20
2022-08-08T10:50:11.110Z,2.13
2022-08-08T10:52:44.566Z,2.40
2022-08-08T10:55:13.888Z,2.75
2022-08-08T10:57:49.586Z,2.13
2022-08-08T11:00:21.752Z,2.30
2022-08-08T11:02:52.065Z,2.20
2022-08-08T11:05:22.809Z,2.50
2022-08-08T11:08:38.134Z,1.98
2022-08-08T11:10:39.533Z,2.40
2022-08-08T11:16:00.923Z,2.25
2022-08-08T11:18:37.522Z,2.08
2022-08-08T11:21:08.985Z,2.35
2022-08-08T11:23:41.732Z,2.20
2022-08-08T11:26:11.784Z,2.58
2022-08-08T11:28:47.773Z,2.50
2022-08-08T11:31:18.534Z,2.53
2022-08-08T11:33:53.481Z,2.30
2022-08-08T11:36:29.626Z,2.55
2022-08-08T11:38:57.887Z,2.60
2022-08-08T11:41:27.916Z,2.63
2022-08-08T11:44:00.729Z,3.00
2022-08-08T11:46:30.474Z,2.80
2022-08-08T11:49:01.060Z,2.47
2022-08-08T11:51:39.951Z,2.58
2022-08-08T11:54:09.742Z,2.25
2022-08-08T11:56:56.781Z,2.50
2022-08-08T12:00:00.587Z,2.13
2022-08-08T12:02:35.637Z,2.28
2022-08-08T12:05:07.160Z,2.10
2022-08-08T12:07:51.222Z,2.30
2022-08-08T12:10:20.216Z,2.70
2022-08-08T12:12:49.216Z,2.50
2022-08-08T12:15:29.153Z,2.38
2022-08-08T12:17:56.805Z,2.50
2022-08-08T12:20:26.451Z,2.85
2022-08-08T12:22:54.506Z,2.78
2022-08-08T12:25:30.064Z,2.70
2022-08-08T12:28:14.354Z,2.28
2022-08-08T12:30:47.918Z,2.50
2022-08-08T12:33:18.703Z,2.80
2022-08-08T12:35:51.944Z,2.67
2022-08-08T12:38:20.669Z,2.85
2022-08-08T12:41:06.999Z,2.42
2022-08-08T12:43:59.674Z,2.40
2022-08-08T12:46:28.984Z,2.40
2022-08-08T12:51:58.394Z,2.60
2022-08-08T12:54:28.986Z,2.45
2022-08-08T12:56:56.929Z,2.72
2022-08-08T12:59:36.474Z,2.08
2022-08-08T13:02:22.542Z,2.78
2022-08-08T13:04:56.552Z,2.75
2022-08-08T13:08:03.924Z,2.75
2022-08-08T13:10:31.760Z,2.40
2022-08-08T13:13:05.849Z,3.20
2022-08-08T13:15:33.999Z,2.80
2022-08-08T13:18:11.266Z,2.85
2022-08-08T13:20:45.215Z,2.55
2022-08-08T13:23:36.865Z,2.80
2022-08-08T13:26:15.385Z,2.80
2022-08-08T13:28:46.053Z,2.67
2022-08-08T13:31:17.277Z,2.45
2022-08-08T13:33:47.351Z,2.75
2022-08-08T13:36:17.844Z,2.50
2022-08-08T13:39:00.206Z,2.60
2022-08-08T13:41:37.916Z,2.50
2022-08-08T13:44:12.370Z,2.72
2022-08-08T13:46:40.065Z,2.30
2022-08-08T13:50:39.303Z,2.42
2022-08-08T13:52:04.777Z,2.40
2022-08-08T13:54:35.224Z,2.67
2022-08-08T13:57:12.408Z,2.30
2022-08-08T13:59:44.381Z,2.40
2022-08-08T14:02:20.400Z,2.35
2022-08-08T14:05:05.162Z,2.47
2022-08-08T14:07:38.612Z,2.35
2022-08-08T14:10:17.439Z,2.15
2022-08-08T14:12:46.609Z,2.20
2022-08-08T14:15:23.908Z,2.50
2022-08-08T14:18:34.772Z,2.10
2022-08-08T14:20:57.719Z,2.30
2022-08-08T14:24:06.761Z,2.20
2022-08-08T14:26:28.135Z,2.05
2022-08-08T14:28:57.014Z,2.30
2022-08-08T14:32:06.349Z,2.00
2022-08-08T14:34:19.150Z,2.40
2022-08-08T14:36:53.492Z,2.10
2022-08-08T14:39:24.866Z,2.10
2022-08-08T14:41:59.577Z,2.10
2022-08-08T14:44:35.201Z,2.42
2022-08-08T14:47:17.428Z,2.20
2022-08-08T14:50:06.366Z,2.30
2022-08-08T14:52:48.088Z,2.30
2022-08-08T14:55:16.430Z,2.28
2022-08-08T14:58:03.594Z,2.28
2022-08-08T15:00:39.695Z,2.35
2022-08-08T15:03:14.203Z,2.13
2022-08-08T15:05:53.403Z,2.28
2022-08-08T15:08:33.897Z,2.35
2022-08-08T15:11:04.829Z,2.38
2022-08-08T15:13:41.012Z,2.20
2022-08-08T15:16:23.428Z,2.20
2022-08-08T15:18:52.021Z,2.00
2022-08-08T15:21:20.791Z,2.35
2022-08-08T15:23:51.418Z,2.00
2022-08-08T15:26:19.693Z,2.20
2022-08-08T15:28:50.942Z,2.20
2022-08-08T15:31:25.997Z,2.22
2022-08-08T15:34:08.757Z,2.40
2022-08-08T15:36:56.630Z,2.10
2022-08-08T15:39:24.357Z,2.05
2022-08-08T15:41:53.404Z,2.05
2022-08-08T15:44:23.244Z,1.90
2022-08-08T15:46:51.275Z,1.88
2022-08-08T15:49:20.557Z,2.10
2022-08-08T15:51:50.183Z,1.90
2022-08-08T15:54:38.626Z,2.08
2022-08-08T15:57:07.367Z,1.88
2022-08-08T16:00:05.721Z,1.88
2022-08-08T16:02:30.896Z,1.92
2022-08-08T16:04:59.395Z,1.80
2022-08-08T16:07:51.516Z,2.20
2022-08-08T16:13:03.133Z,1.50
2022-08-08T16:13:33.879Z,1.77
2022-08-08T16:15:57.456Z,2.00
2022-08-08T16:18:32.999Z,2.28
2022-08-08T16:21:01.295Z,1.98
2022-08-08T16:23:31.458Z,1.67
2022-08-08T16:26:04.256Z,1.80
2022-08-08T16:28:35.215Z,2.90
2022-08-08T16:31:06.344Z,2.22
2022-08-08T16:33:38.502Z,1.90
2022-08-08T16:36:08.751Z,1.90
2022-08-08T16:38:40.768Z,2.10
2022-08-08T16:41:20.396Z,1.90
2022-08-08T16:43:51.703Z,2.08
2022-08-08T16:46:36.659Z,1.90
2022-08-08T16:49:09.338Z,1.70
2022-08-08T16:55:01.328Z,1.90
2022-08-08T16:55:06.674Z,1.58
2022-08-08T16:57:23.254Z,1.80
2022-08-08T17:00:06.177Z,2.00
2022-08-08T17:02:38.612Z,1.85
2022-08-08T17:05:08.770Z,1.90
2022-08-08T17:07:40.891Z,1.90
2022-08-08T17:10:09.842Z,1.67
2022-08-08T17:12:37.936Z,1.73
2022-08-08T17:15:20.164Z,1.70
2022-08-08T17:18:02.634Z,1.70
2022-08-08T17:20:32.241Z,1.75
2022-08-08T17:23:18.479Z,1.90
2022-08-08T17:25:53.744Z,1.85
2022-08-08T17:28:33.988Z,1.70
2022-08-08T17:31:39.047Z,1.80
2022-08-08T17:34:52.707Z,1.45
2022-08-08T17:37:00.321Z,1.80
2022-08-08T17:40:05.029Z,2.25
2022-08-08T17:42:15.641Z,2.10
2022-08-08T17:44:44.477Z,1.88
2022-08-08T17:47:24.110Z,2.13
2022-08-08T17:50:01.291Z,1.90
2022-08-08T17:52:30.785Z,1.85
2022-08-08T17:54:58.697Z,1.70
2022-08-08T17:57:28.848Z,1.90
2022-08-08T18:00:03.638Z,2.00
2022-08-08T18:02:31.863Z,2.00
2022-08-08T18:05:04.679Z,1.80
2022-08-08T18:08:03.284Z,1.80
2022-08-08T18:10:20.547Z,2.00
2022-08-08T18:12:59.198Z,1.92
2022-08-08T18:15:28.378Z,1.60
2022-08-08T18:18:09.545Z,1.80
2022-08-08T18:20:54.701Z,2.08
2022-08-08T18:23:27.132Z,1.85
2022-08-08T18:26:01.403Z,1.80
2022-08-08T18:28:33.403Z,1.90
2022-08-08T18:31:19.467Z,1.83
2022-08-08T18:34:11.654Z,1.80
2022-08-08T18:36:36.519Z,1.83
2022-08-08T18:39:04.765Z,2.10
2022-08-08T18:41:51.130Z,2.10
2022-08-08T18:44:21.205Z,1.98
2022-08-08T18:46:58.057Z,2.20
2022-08-08T18:49:32.260Z,2.20
2022-08-08T18:52:22.119Z,2.25
2022-08-08T18:54:59.429Z,2.50
2022-08-08T18:57:42.025Z,3.10
2022-08-08T19:00:16.847Z,3.40
2022-08-08T19:02:56.970Z,4.28
2022-08-08T19:05:32.240Z,5.68
2022-08-08T19:08:11.860Z,5.88
2022-08-08T19:10:54.352Z,6.97
2022-08-08T19:13:24.452Z,12.43
2022-08-08T19:15:55.722Z,22.10
2022-08-08T19:18:33.276Z,20.40
2022-08-08T19:21:29.431Z,22.08
2022-08-08T19:24:00.207Z,18.90
2022-08-08T19:26:31.235Z,31.40
2022-08-08T19:28:59.673Z,26.95
2022-08-08T19:31:31.393Z,8.40
2022-08-08T19:34:29.636Z,6.15
2022-08-08T19:36:52.924Z,4.28
2022-08-08T19:39:23.051Z,4.00
2022-08-08T19:41:50.973Z,3.15
2022-08-08T19:44:34.758Z,2.95
2022-08-08T19:47:07.056Z,2.70
2022-08-08T19:49:36.523Z,3.35
2022-08-08T19:52:06.038Z,5.82
2022-08-08T19:54:34.977Z,2.95
2022-08-08T19:57:07.810Z,3.00
2022-08-08T19:59:35.610Z,3.40
2022-08-08T20:02:05.285Z,3.08
2022-08-08T20:04:33.531Z,3.08
2022-08-08T20:07:05.390Z,3.30
2022-08-08T20:09:55.926Z,3.15
2022-08-08T20:12:32.087Z,3.47
2022-08-08T20:15:14.530Z,3.28
2022-08-08T20:17:45.021Z,3.17
2022-08-08T20:20:19.058Z,2.83
2022-08-08T20:22:48.825Z,3.00
2022-08-08T20:25:21.459Z,3.10
2022-08-08T20:27:53.772Z,2.90
2022-08-08T20:30:52.899Z,3.20
2022-08-08T20:33:20.202Z,3.10
2022-08-08T20:35:57.226Z,3.00
2022-08-08T20:38:31.963Z,2.80
2022-08-08T20:41:17.366Z,3.05
2022-08-08T20:43:49.818Z,2.85
2022-08-08T20:46:20.282Z,3.00
2022-08-08T20:48:48.003Z,2.78
2022-08-08T20:51:15.739Z,2.78
2022-08-08T20:53:59.232Z,3.50
2022-08-08T20:56:35.992Z,2.90
2022-08-08T20:59:21.048Z,3.10
2022-08-08T21:02:07.498Z,2.88
2022-08-08T21:04:36.846Z,2.90
2022-08-08T21:07:13.150Z,2.90
2022-08-08T21:10:01.420Z,2.90
2022-08-08T21:12:35.288Z,2.65
2022-08-08T21:15:06.844Z,3.13
2022-08-08T21:17:36.429Z,2.63
2022-08-08T21:20:05.053Z,3.00
2022-08-08T21:22:32.853Z,2.85
2022-08-08T21:25:00.476Z,2.85
2022-08-08T21:28:06.551Z,2.90
2022-08-08T21:30:21.994Z,2.97
2022-08-08T21:32:51.086Z,2.95
2022-08-08T21:36:17.527Z,3.13
2022-08-08T21:38:16.067Z,3.28
2022-08-08T21:40:55.468Z,2.33
2022-08-08T21:43:25.568Z,3.00
2022-08-08T21:48:02.125Z,3.10
2022-08-08T21:48:49.400Z,3.10
2022-08-08T21:51:20.279Z,2.60
2022-08-08T21:54:27.209Z,2.88
2022-08-08T21:56:59.394Z,2.38
2022-08-08T21:59:28.301Z,2.45
2022-08-08T22:02:13.331Z,2.85
2022-08-08T22:04:43.752Z,2.40
2022-08-08T22:07:11.517Z,2.38
2022-08-08T22:09:41.306Z,2.65
2022-08-08T22:12:15.039Z,2.90
2022-08-08T22:14:47.332Z,2.50
2022-08-08T22:17:19.397Z,2.45
2022-08-08T22:20:11.295Z,2.90
2022-08-08T22:22:38.132Z,2.70
2022-08-08T22:25:19.704Z,2.40
2022-08-08T22:28:04.077Z,2.95
2022-08-08T22:30:52.860Z,2.80
2022-08-08T22:34:12.987Z,2.40
2022-08-08T22:36:12.541Z,2.50
2022-08-08T22:38:48.820Z,2.90
2022-08-08T22:41:21.589Z,2.42
2022-08-08T22:44:02.806Z,2.70
2022-08-08T22:46:33.729Z,2.80
2022-08-08T22:49:02.671Z,2.33
2022-08-08T22:51:35.023Z,2.65
2022-08-08T22:54:30.994Z,2.63
2022-08-08T22:56:57.785Z,2.65
2022-08-08T22:59:25.342Z,2.58
2022-08-08T23:02:03.482Z,2.58
2022-08-08T23:04:33.507Z,2.60
2022-08-08T23:07:03.229Z,2.67
2022-08-08T23:09:39.458Z,2.72
2022-08-08T23:12:39.795Z,2.80
2022-08-08T23:16:36.699Z,3.20
2022-08-08T23:17:58.091Z,2.60
2022-08-08T23:20:27.793Z,2.70
2022-08-08T23:22:56.992Z,2.60
2022-08-08T23:25:24.807Z,2.20
2022-08-08T23:27:54.458Z,2.40
2022-08-08T23:30:22.759Z,2.67
2022-08-08T23:32:51.963Z,2.80
2022-08-08T23:35:19.678Z,2.70
2022-08-08T23:38:00.960Z,2.85
2022-08-08T23:40:30.603Z,3.05
2022-08-08T23:42:58.515Z,3.00
2022-08-08T23:49:02.105Z,3.08
2022-08-08T23:49:06.942Z,2.65
2022-08-08T23:51:06.494Z,2.80
2022-08-08T23:54:04.819Z,2.95
2022-08-08T23:56:32.450Z,2.78
2022-08-08T23:59:02.233Z,3.30
